New Century 1 — H9LA — position and weather

sailwx.info

Track history (hours):
 
Tides and Currents Weather Stations Pressure Air Temp Water Temp Dewpoint Dewpoint Depression Visibility Wind Speed Wind Dir Waves Ship Positions

New Century 1

Last reported at 2018-Feb-20 06:00 UTC. Time now 2018-Feb-20 16:58 UTC.
Position N 18°24' W 106°42'.

Length 200 m; beam 32.3 m.

Type: Cargo ship. MMSI: 355234000.

Wind from 330 at 19 knots

Barometer 1014.8 mb
Air temperature 24.0 ° C
Visibility: greater than 10.8 NM
Dewpoint 22.6 ° C
Water temperature 24.0 ° C

Date/timePositionNaut miles runAvg speedWind from/ knotsBaromVisibWave heightAir tempDewpointWater temp
2018-Feb-20 06:00N 18°24' W 106°42'21718.1 330 / 191014.810.8 24.022.624.0
2018-Feb-19 18:00N 17°00' W 103°12'22618.8 200 / 101014.8 5.4 28.026.721.0
2018-Feb-19 06:00N 15°30' W 099°36'20917.4 310 / 151014.310.8 27.022.828.0
2018-Feb-18 18:00N 14°06' W 096°18'98551642.6 040 / 121015.7 5.4 28.026.720.0
2018-Feb-18 12:00N 13°24' E 094°36'10551293.1 030 / 101012.9 5.4 24.022.623.0
2018-Feb-17 00:00N 08°24' W 084°24'273 9.5 230 / 101008.4 5.4 29.026.426.0
2018-Feb-15 19:22N 09°11' W 079°52'4 9.6
2018-Feb-15 18:59N 09°13' W 079°55'2 5.2
2018-Feb-15 18:31N 09°15' W 079°55'0 0.4
2018-Feb-15 17:59N 09°15' W 079°55'0 0.0
2018-Feb-15 16:47N 09°15' W 079°55'0 0.1
2018-Feb-15 16:29N 09°15' W 079°55'0 0.1
2018-Feb-15 15:59N 09°15' W 079°55'0 0.0
2018-Feb-15 12:38N 09°15' W 079°55'0 0.1
2018-Feb-15 12:24N 09°15' W 079°55'0 0.0
2018-Feb-15 10:57N 09°15' W 079°55'0 0.2
2018-Feb-15 10:28N 09°15' W 079°55'1 1.9
2018-Feb-15 10:00N 09°16' W 079°55'0 0.6
2018-Feb-15 09:26N 09°17' W 079°55'0 0.8
2018-Feb-15 09:00N 09°17' W 079°55'2 3.9
2018-Feb-15 08:30N 09°19' W 079°55'4 7.8
2018-Feb-15 08:00N 09°23' W 079°56'0 0.4
2018-Feb-15 07:30N 09°23' W 079°56'0 0.2
2018-Feb-15 07:00N 09°23' W 079°56'0 0.1
2018-Feb-15 06:24N 09°23' W 079°56'0 0.0
2018-Feb-15 06:00N 09°23' W 079°56'0 0.2
2018-Feb-15 05:30N 09°23' W 079°56'0 0.0
2018-Feb-15 05:00N 09°23' W 079°56'0 0.1
2018-Feb-15 04:30N 09°23' W 079°56'0 0.0
2018-Feb-15 04:00N 09°23' W 079°56'0 0.1
2018-Feb-15 03:30N 09°23' W 079°56'0 0.0
2018-Feb-15 03:00N 09°23' W 079°56'0 0.1
2018-Feb-15 02:30N 09°23' W 079°56'0 0.1
2018-Feb-15 02:00N 09°23' W 079°56'0 0.2
2018-Feb-15 01:31N 09°23' W 079°56'3 5.1
2018-Feb-15 01:00N 09°25' W 079°56'1 2.7
2018-Feb-15 00:29N 09°24' W 079°56'0 0.2
2018-Feb-14 23:59N 09°24' W 079°57'0 0.2
2018-Feb-14 23:29N 09°24' W 079°56'0 0.2
2018-Feb-14 22:59N 09°24' W 079°57'0 0.1
2018-Feb-14 22:29N 09°24' W 079°56'0 0.1
2018-Feb-14 21:59N 09°24' W 079°56'0 0.0
2018-Feb-14 21:29N 09°24' W 079°56'0 0.1
2018-Feb-14 20:59N 09°24' W 079°56'1 1.7
2018-Feb-14 20:31N 09°25' W 079°57'4 7.5
2018-Feb-14 20:01N 09°28' W 079°57'713.1
2018-Feb-14 19:30N 09°34' W 079°53'612.4
2018-Feb-14 19:00N 09°39' W 079°50'34017.9
2018-Feb-14 00:00N 14°36' W 077°00'63217.6 020 / 601016.3 1.6 23.226.0
2018-Feb-12 12:00N 24°24' W 072°54'   090 / 331024.8 5.4 23.020.123.0
Track history (hours):
 
Tides and Currents Weather Stations Pressure Air Temp Water Temp Dewpoint Dewpoint Depression Visibility Wind Speed Wind Dir Waves Ship Positions

New Century 1

Last reported at 2018-Feb-20 06:00 UTC. Time now 2018-Feb-20 16:58 UTC.
Position N 18°24' W 106°42'.

Length 200 m; beam 32.3 m.

Type: Cargo ship. MMSI: 355234000.

Wind from 330 at 19 knots

Barometer 1014.8 mb
Air temperature 24.0 ° C
Visibility: greater than 10.8 NM
Dewpoint 22.6 ° C
Water temperature 24.0 ° C

Date/timePositionNaut miles runAvg speedWind from/ knotsBaromVisibWave heightAir tempDewpointWater temp
2018-Feb-20 06:00N 18°24' W 106°42'21718.1 330 / 191014.810.8 24.022.624.0
2018-Feb-19 18:00N 17°00' W 103°12'22618.8 200 / 101014.8 5.4 28.026.721.0
2018-Feb-19 06:00N 15°30' W 099°36'20917.4 310 / 151014.310.8 27.022.828.0
2018-Feb-18 18:00N 14°06' W 096°18'98551642.6 040 / 121015.7 5.4 28.026.720.0
2018-Feb-18 12:00N 13°24' E 094°36'10551293.1 030 / 101012.9 5.4 24.022.623.0
2018-Feb-17 00:00N 08°24' W 084°24'273 9.5 230 / 101008.4 5.4 29.026.426.0
2018-Feb-15 19:22N 09°11' W 079°52'4 9.6
2018-Feb-15 18:59N 09°13' W 079°55'2 5.2
2018-Feb-15 18:31N 09°15' W 079°55'0 0.4
2018-Feb-15 17:59N 09°15' W 079°55'0 0.0
2018-Feb-15 16:47N 09°15' W 079°55'0 0.1
2018-Feb-15 16:29N 09°15' W 079°55'0 0.1
2018-Feb-15 15:59N 09°15' W 079°55'0 0.0
2018-Feb-15 12:38N 09°15' W 079°55'0 0.1
2018-Feb-15 12:24N 09°15' W 079°55'0 0.0
2018-Feb-15 10:57N 09°15' W 079°55'0 0.2
2018-Feb-15 10:28N 09°15' W 079°55'1 1.9
2018-Feb-15 10:00N 09°16' W 079°55'0 0.6
2018-Feb-15 09:26N 09°17' W 079°55'0 0.8
2018-Feb-15 09:00N 09°17' W 079°55'2 3.9
2018-Feb-15 08:30N 09°19' W 079°55'4 7.8
2018-Feb-15 08:00N 09°23' W 079°56'0 0.4
2018-Feb-15 07:30N 09°23' W 079°56'0 0.2
2018-Feb-15 07:00N 09°23' W 079°56'0 0.1
2018-Feb-15 06:24N 09°23' W 079°56'0 0.0
2018-Feb-15 06:00N 09°23' W 079°56'0 0.2
2018-Feb-15 05:30N 09°23' W 079°56'0 0.0
2018-Feb-15 05:00N 09°23' W 079°56'0 0.1
2018-Feb-15 04:30N 09°23' W 079°56'0 0.0
2018-Feb-15 04:00N 09°23' W 079°56'0 0.1
2018-Feb-15 03:30N 09°23' W 079°56'0 0.0
2018-Feb-15 03:00N 09°23' W 079°56'0 0.1
2018-Feb-15 02:30N 09°23' W 079°56'0 0.1
2018-Feb-15 02:00N 09°23' W 079°56'0 0.2
2018-Feb-15 01:31N 09°23' W 079°56'3 5.1
2018-Feb-15 01:00N 09°25' W 079°56'1 2.7
2018-Feb-15 00:29N 09°24' W 079°56'0 0.2
2018-Feb-14 23:59N 09°24' W 079°57'0 0.2
2018-Feb-14 23:29N 09°24' W 079°56'0 0.2
2018-Feb-14 22:59N 09°24' W 079°57'0 0.1
2018-Feb-14 22:29N 09°24' W 079°56'0 0.1
2018-Feb-14 21:59N 09°24' W 079°56'0 0.0
2018-Feb-14 21:29N 09°24' W 079°56'0 0.1
2018-Feb-14 20:59N 09°24' W 079°56'1 1.7
2018-Feb-14 20:31N 09°25' W 079°57'4 7.5
2018-Feb-14 20:01N 09°28' W 079°57'713.1
2018-Feb-14 19:30N 09°34' W 079°53'612.4
2018-Feb-14 19:00N 09°39' W 079°50'34017.9
2018-Feb-14 00:00N 14°36' W 077°00'63217.6 020 / 601016.3 1.6 23.226.0
2018-Feb-12 12:00N 24°24' W 072°54'   090 / 331024.8 5.4 23.020.123.0

Dump ship's entire track history